createdAt,value
2018-04-29T00:01:44.709Z,68.50
2018-04-29T00:04:14.792Z,68.70
2018-04-29T00:06:45.434Z,68.60
2018-04-29T00:09:15.272Z,68.60
2018-04-29T00:11:45.187Z,68.80
2018-04-29T00:14:15.143Z,68.80
2018-04-29T00:16:44.955Z,68.60
2018-04-29T00:19:15.956Z,68.70
2018-04-29T00:21:46.075Z,68.30
2018-04-29T00:24:15.990Z,68.50
2018-04-29T00:26:45.710Z,68.30
2018-04-29T00:29:15.418Z,68.40
2018-04-29T00:31:45.329Z,68.40
2018-04-29T00:34:17.043Z,68.30
2018-04-29T00:36:47.002Z,68.30
2018-04-29T00:39:16.711Z,68.30
2018-04-29T00:41:46.421Z,68.40
2018-04-29T00:44:17.796Z,68.50
2018-04-29T00:46:54.365Z,68.50
2018-04-29T00:49:24.974Z,67.90
2018-04-29T00:52:07.243Z,67.80
2018-04-29T00:54:37.092Z,67.80
2018-04-29T00:57:08.443Z,68.00
2018-04-29T00:59:38.360Z,68.00
2018-04-29T01:02:08.477Z,67.40
2018-04-29T01:04:38.802Z,67.80
2018-04-29T01:07:08.512Z,67.80
2018-04-29T01:09:39.860Z,67.90
2018-04-29T01:12:09.572Z,67.90
2018-04-29T01:14:39.282Z,68.00
2018-04-29T01:17:08.997Z,67.40
2018-04-29T01:19:38.704Z,68.20
2018-04-29T01:22:10.052Z,68.20
2018-04-29T01:24:39.968Z,67.50
2018-04-29T01:27:09.835Z,67.30
2018-04-29T01:29:39.593Z,67.60
2018-04-29T01:32:09.304Z,67.70
2018-04-29T01:34:40.624Z,67.40
2018-04-29T01:37:10.365Z,67.40
2018-04-29T01:39:40.146Z,67.40
2018-04-29T01:42:10.194Z,67.50
2018-04-29T01:44:40.110Z,67.20
2018-04-29T01:47:11.459Z,67.70
2018-04-29T01:49:41.272Z,67.60
2018-04-29T01:52:10.984Z,67.60
2018-04-29T01:54:41.925Z,67.40
2018-04-29T01:57:11.841Z,67.40
2018-04-29T01:59:41.549Z,67.50
2018-04-29T02:02:11.259Z,67.30
2018-04-29T02:04:42.609Z,67.40
2018-04-29T02:07:12.680Z,67.40
2018-04-29T02:09:42.446Z,67.10
2018-04-29T02:12:12.149Z,67.40
2018-04-29T02:14:41.861Z,67.10
2018-04-29T02:17:11.574Z,67.20
2018-04-29T02:19:41.486Z,67.40
2018-04-29T02:22:11.196Z,67.20
2018-04-29T02:24:40.978Z,67.50
2018-04-29T02:27:10.619Z,67.30
2018-04-29T02:29:40.540Z,67.20
2018-04-29T02:32:10.251Z,67.40
2018-04-29T02:34:40.165Z,67.30
2018-04-29T02:37:09.872Z,67.20
2018-04-29T02:39:39.787Z,67.10
2018-04-29T02:42:09.496Z,67.30
2018-04-29T02:44:40.800Z,67.30
2018-04-29T02:47:10.568Z,67.30
2018-04-29T02:49:40.474Z,67.20
2018-04-29T02:52:10.184Z,67.50
2018-04-29T02:54:41.068Z,67.20
2018-04-29T02:57:15.861Z,67.30
2018-04-29T02:59:46.041Z,67.60
2018-04-29T03:02:15.789Z,67.50
2018-04-29T03:04:45.706Z,67.60
2018-04-29T03:07:15.564Z,67.50
2018-04-29T03:09:45.326Z,67.60
2018-04-29T03:12:15.651Z,67.70
2018-04-29T03:14:45.367Z,67.90
2018-04-29T03:17:15.081Z,67.90
2018-04-29T03:19:45.603Z,67.80
2018-04-29T03:22:15.542Z,68.10
2018-04-29T03:24:45.844Z,68.00
2018-04-29T03:27:17.192Z,68.30
2018-04-29T03:29:47.111Z,68.20
2018-04-29T03:32:24.982Z,68.20
2018-04-29T03:34:55.948Z,68.40
2018-04-29T03:37:25.880Z,68.40
2018-04-29T03:39:55.574Z,68.50
2018-04-29T03:42:25.708Z,68.60
2018-04-29T03:44:55.611Z,68.70
2018-04-29T03:47:25.323Z,68.80
2018-04-29T03:49:55.238Z,68.90
2018-04-29T03:52:25.303Z,69.10
2018-04-29T03:54:55.067Z,69.20
2018-04-29T03:57:33.791Z,69.10
2018-04-29T04:02:21.953Z,69.20
2018-04-29T04:04:51.867Z,69.20
2018-04-29T04:07:22.187Z,69.40
2018-04-29T04:09:51.921Z,69.50
2018-04-29T04:12:21.607Z,69.50
2018-04-29T04:14:51.318Z,69.50
2018-04-29T04:17:21.233Z,69.60
2018-04-29T04:19:51.764Z,69.70
2018-04-29T04:22:21.752Z,69.70
2018-04-29T04:24:51.391Z,69.70
2018-04-29T04:27:22.741Z,70.00
2018-04-29T04:29:52.654Z,70.00
2018-04-29T04:32:22.571Z,70.00
2018-04-29T04:34:52.280Z,70.00
2018-04-29T04:37:21.990Z,70.10
2018-04-29T04:39:52.111Z,70.20
2018-04-29T04:42:22.026Z,70.20
2018-04-29T04:44:51.737Z,70.30
2018-04-29T04:47:23.084Z,70.40
2018-04-29T04:49:52.949Z,70.30
2018-04-29T04:52:22.868Z,70.40
2018-04-29T04:54:52.748Z,70.40
2018-04-29T04:58:25.325Z,70.50
2018-04-29T05:00:55.247Z,70.50
2018-04-29T05:03:24.953Z,70.70
2018-04-29T05:05:54.661Z,70.80
2018-04-29T05:08:24.685Z,70.80
2018-04-29T05:10:54.548Z,70.90
2018-04-29T05:13:24.614Z,71.00
2018-04-29T05:15:54.733Z,71.00
2018-04-29T05:18:24.498Z,71.20
2018-04-29T05:20:54.358Z,71.20
2018-04-29T05:23:24.896Z,71.40
2018-04-29T05:25:54.807Z,71.40
2018-04-29T05:28:25.338Z,71.30
2018-04-29T05:30:55.044Z,71.40
2018-04-29T05:33:24.960Z,71.50
2018-04-29T05:35:55.489Z,71.70
2018-04-29T05:38:25.404Z,71.70
2018-04-29T05:40:56.549Z,71.70
2018-04-29T05:43:27.605Z,71.70
2018-04-29T05:45:58.412Z,71.70
2018-04-29T05:48:29.876Z,71.80
2018-04-29T05:51:06.767Z,71.70
2018-04-29T05:53:38.788Z,71.70
2018-04-29T05:56:09.658Z,71.70
2018-04-29T05:58:44.156Z,71.80
2018-04-29T06:01:13.990Z,71.80
2018-04-29T06:03:44.128Z,71.70
2018-04-29T06:06:15.252Z,71.90
2018-04-29T06:08:46.399Z,71.90
2018-04-29T06:11:19.513Z,72.00
2018-04-29T06:13:50.313Z,71.90
2018-04-29T06:16:20.438Z,72.00
2018-04-29T06:18:51.176Z,72.00
2018-04-29T06:21:21.087Z,72.00
2018-04-29T06:23:50.795Z,72.50
2018-04-29T06:26:20.737Z,72.30
2018-04-29T06:28:50.419Z,72.30
2018-04-29T06:31:20.335Z,72.30
2018-04-29T06:33:51.272Z,72.70
2018-04-29T06:36:21.827Z,72.70
2018-04-29T06:38:51.996Z,72.60
2018-04-29T06:41:21.835Z,72.60
2018-04-29T06:43:51.905Z,72.70
2018-04-29T06:46:21.944Z,72.80
2018-04-29T06:48:52.843Z,72.80
2018-04-29T06:51:22.719Z,72.90
2018-04-29T06:53:53.888Z,72.90
2018-04-29T06:56:32.218Z,73.20
2018-04-29T06:59:03.530Z,73.30
2018-04-29T07:01:34.361Z,73.40
2018-04-29T07:04:04.635Z,73.60
2018-04-29T07:06:35.121Z,73.70
2018-04-29T07:09:06.000Z,73.40
2018-04-29T07:11:36.095Z,73.70
2018-04-29T07:14:09.745Z,73.20
2018-04-29T07:16:40.089Z,73.50
2018-04-29T07:19:09.964Z,73.40
2018-04-29T07:21:39.876Z,73.50
2018-04-29T07:24:09.633Z,73.70
2018-04-29T07:26:39.746Z,73.80
2018-04-29T07:29:09.621Z,73.70
2018-04-29T07:31:39.576Z,73.70
2018-04-29T07:34:09.945Z,73.90
2018-04-29T07:36:39.816Z,73.80
2018-04-29T07:39:09.728Z,74.30
2018-04-29T07:41:39.642Z,74.20
2018-04-29T07:44:10.580Z,74.00
2018-04-29T07:46:45.039Z,74.10
2018-04-29T07:49:15.724Z,74.00
2018-04-29T07:51:46.408Z,74.10
2018-04-29T07:54:16.589Z,74.00
2018-04-29T07:56:46.705Z,74.10
2018-04-29T07:59:16.825Z,74.20
2018-04-29T08:01:46.946Z,74.20
2018-04-29T08:04:18.458Z,74.10
2018-04-29T08:06:48.802Z,74.10
2018-04-29T08:09:18.939Z,74.20
2018-04-29T08:11:51.217Z,74.20
2018-04-29T08:14:21.187Z,74.40
2018-04-29T08:16:51.138Z,74.10
2018-04-29T08:19:21.873Z,74.20
2018-04-29T08:21:51.582Z,74.10
2018-04-29T08:24:21.240Z,74.20
2018-04-29T08:26:51.002Z,74.20
2018-04-29T08:29:20.711Z,74.20
2018-04-29T08:31:50.898Z,74.00
2018-04-29T08:34:20.742Z,74.00
2018-04-29T08:36:50.866Z,74.10
2018-04-29T08:39:20.655Z,73.90
2018-04-29T08:41:51.334Z,74.00
2018-04-29T08:44:21.429Z,74.00
2018-04-29T08:46:51.338Z,73.80
2018-04-29T08:49:30.897Z,73.80
2018-04-29T08:52:11.089Z,73.80
2018-04-29T08:54:41.772Z,74.00
2018-04-29T08:57:15.697Z,74.00
2018-04-29T08:59:45.794Z,74.00
2018-04-29T09:02:16.448Z,73.80
2018-04-29T09:04:46.646Z,74.00
2018-04-29T09:07:16.561Z,74.10
2018-04-29T09:09:46.490Z,73.70
2018-04-29T09:12:16.599Z,73.80
2018-04-29T09:14:46.712Z,73.70
2018-04-29T09:17:22.945Z,73.80
2018-04-29T09:19:55.159Z,73.80
2018-04-29T09:22:29.091Z,73.80
2018-04-29T09:25:02.049Z,73.80
2018-04-29T09:27:32.873Z,73.80
2018-04-29T09:30:03.812Z,73.90
2018-04-29T09:32:34.226Z,73.80
2018-04-29T09:35:05.008Z,73.80
2018-04-29T09:37:35.195Z,73.80
2018-04-29T09:40:05.207Z,73.80
2018-04-29T09:42:35.041Z,73.80
2018-04-29T09:45:05.346Z,74.00
2018-04-29T09:47:35.395Z,74.00
2018-04-29T09:50:05.375Z,74.10
2018-04-29T09:52:35.260Z,74.00
2018-04-29T09:55:05.124Z,73.90
2018-04-29T09:57:35.507Z,73.90
2018-04-29T10:00:05.538Z,73.80
2018-04-29T10:02:40.572Z,73.90
2018-04-29T10:05:10.764Z,73.90
2018-04-29T10:07:40.913Z,74.00
2018-04-29T10:10:10.725Z,73.70
2018-04-29T10:12:40.900Z,73.60
2018-04-29T10:15:11.084Z,73.80
2018-04-29T10:17:41.059Z,73.50
2018-04-29T10:20:10.949Z,73.70
2018-04-29T10:22:41.215Z,73.70
2018-04-29T10:25:11.386Z,73.70
2018-04-29T10:27:41.172Z,74.20
2018-04-29T10:30:11.148Z,73.30
2018-04-29T10:32:50.762Z,73.30
2018-04-29T10:35:21.547Z,73.50
2018-04-29T10:37:51.478Z,73.40
2018-04-29T10:40:21.791Z,73.50
2018-04-29T10:42:52.112Z,73.90
2018-04-29T10:45:22.638Z,73.40
2018-04-29T10:47:52.521Z,73.50
2018-04-29T10:50:22.431Z,73.50
2018-04-29T10:52:52.371Z,73.20
2018-04-29T10:55:22.596Z,73.30
2018-04-29T10:57:52.943Z,73.40
2018-04-29T11:00:23.574Z,73.10
2018-04-29T11:02:53.437Z,73.10
2018-04-29T11:05:23.383Z,73.10
2018-04-29T11:07:54.119Z,73.30
2018-04-29T11:10:24.458Z,73.30
2018-04-29T11:12:54.413Z,73.20
2018-04-29T11:15:24.257Z,73.70
2018-04-29T11:17:54.552Z,72.90
2018-04-29T11:20:24.209Z,72.90
2018-04-29T11:22:55.617Z,72.80
2018-04-29T11:25:25.358Z,73.00
2018-04-29T11:27:56.187Z,73.10
2018-04-29T11:30:26.163Z,73.00
2018-04-29T11:32:55.932Z,73.00
2018-04-29T11:35:26.115Z,73.10
2018-04-29T11:37:56.714Z,72.90
2018-04-29T11:40:26.909Z,73.10
2018-04-29T11:42:57.038Z,73.10
2018-04-29T11:45:36.436Z,72.90
2018-04-29T11:48:13.409Z,72.90
2018-04-29T11:50:43.786Z,73.10
2018-04-29T11:53:13.936Z,72.70
2018-04-29T11:55:43.696Z,72.70
2018-04-29T11:58:13.721Z,72.70
2018-04-29T12:00:43.696Z,72.90
2018-04-29T12:03:13.506Z,72.80
2018-04-29T12:05:43.443Z,72.90
2018-04-29T12:08:13.215Z,72.70
2018-04-29T12:10:43.197Z,72.60
2018-04-29T12:13:15.556Z,72.50
2018-04-29T12:15:58.094Z,72.80
2018-04-29T12:18:37.144Z,72.70
2018-04-29T12:21:07.269Z,72.80
2018-04-29T12:23:41.410Z,72.70
2018-04-29T12:26:12.120Z,72.60
2018-04-29T12:28:42.310Z,72.40
2018-04-29T12:31:13.123Z,72.50
2018-04-29T12:33:44.338Z,72.50
2018-04-29T12:36:21.857Z,72.70
2018-04-29T12:38:52.686Z,72.70
2018-04-29T12:41:22.653Z,72.70
2018-04-29T12:43:52.629Z,72.60
2018-04-29T12:46:22.401Z,72.40
2018-04-29T12:48:52.320Z,72.20
2018-04-29T12:51:22.149Z,72.30
2018-04-29T12:53:52.127Z,72.20
2018-04-29T12:56:22.279Z,72.10
2018-04-29T12:58:52.701Z,71.90
2018-04-29T13:01:22.832Z,72.10
2018-04-29T13:03:52.936Z,72.00
2018-04-29T13:06:23.082Z,72.10
2018-04-29T13:08:52.818Z,72.10
2018-04-29T13:11:22.964Z,71.90
2018-04-29T13:13:53.997Z,72.20
2018-04-29T13:16:23.973Z,72.20
2018-04-29T13:18:54.156Z,72.10
2018-04-29T13:21:24.135Z,71.70
2018-04-29T13:23:55.172Z,72.10
2018-04-29T13:26:25.273Z,72.20
2018-04-29T13:28:55.338Z,72.30
2018-04-29T13:31:25.466Z,71.80
2018-04-29T13:33:55.448Z,72.30
2018-04-29T13:36:25.579Z,72.30
2018-04-29T13:38:55.641Z,72.30
2018-04-29T13:41:25.373Z,72.50
2018-04-29T13:43:55.153Z,72.30
2018-04-29T13:46:25.061Z,72.40
2018-04-29T13:48:54.891Z,72.30
2018-04-29T13:51:24.811Z,72.40
2018-04-29T13:53:54.761Z,72.40
2018-04-29T13:56:25.025Z,73.30
2018-04-29T13:58:55.271Z,72.40
2018-04-29T14:01:25.393Z,72.50
2018-04-29T14:03:55.366Z,72.80
2018-04-29T14:06:25.358Z,72.80
2018-04-29T14:08:55.202Z,72.60
2018-04-29T14:11:25.710Z,72.70
2018-04-29T14:13:55.762Z,73.00
2018-04-29T14:16:25.566Z,73.30
2018-04-29T14:18:55.588Z,73.50
2018-04-29T14:21:25.471Z,73.50
2018-04-29T14:23:57.019Z,73.50
2018-04-29T14:26:26.799Z,73.50
2018-04-29T14:28:56.565Z,73.50
2018-04-29T14:31:26.409Z,73.60
2018-04-29T14:33:56.308Z,73.60
2018-04-29T14:36:26.900Z,73.80
2018-04-29T14:38:57.288Z,73.80
2018-04-29T14:41:27.265Z,73.90
2018-04-29T14:43:57.250Z,75.10
2018-04-29T14:46:27.118Z,74.90
2018-04-29T14:48:57.165Z,74.60
2018-04-29T14:51:27.788Z,74.90
2018-04-29T14:53:57.922Z,74.20
2018-04-29T14:56:28.021Z,74.20
2018-04-29T14:58:58.342Z,74.30
2018-04-29T15:01:28.518Z,74.20
2018-04-29T15:03:58.632Z,74.10
2018-04-29T15:06:28.537Z,74.00
2018-04-29T15:08:58.344Z,73.80
2018-04-29T15:11:32.801Z,73.80
2018-04-29T15:14:17.599Z,73.80
2018-04-29T15:16:58.570Z,73.70
2018-04-29T15:19:38.353Z,73.50
2018-04-29T15:22:08.331Z,73.50
2018-04-29T15:24:39.262Z,73.60
2018-04-29T15:27:09.145Z,73.40
2018-04-29T15:29:38.916Z,73.50
2018-04-29T15:32:08.896Z,73.30
2018-04-29T15:34:38.999Z,73.30
2018-04-29T15:37:09.046Z,73.10
2018-04-29T15:39:39.021Z,73.20
2018-04-29T15:42:08.989Z,73.00
2018-04-29T15:44:38.901Z,73.00
2018-04-29T15:47:08.695Z,73.00
2018-04-29T15:49:39.138Z,72.80
2018-04-29T15:52:08.901Z,73.00
2018-04-29T15:54:39.131Z,72.80
2018-04-29T15:57:10.656Z,72.80
2018-04-29T15:59:41.199Z,72.70
2018-04-29T16:02:11.229Z,72.80
2018-04-29T16:04:41.034Z,72.70
2018-04-29T16:07:11.275Z,72.50
2018-04-29T16:09:41.095Z,72.70
2018-04-29T16:12:11.122Z,72.70
2018-04-29T16:14:41.264Z,72.70
2018-04-29T16:17:11.321Z,72.50
2018-04-29T16:19:41.304Z,72.50
2018-04-29T16:22:11.278Z,72.60
2018-04-29T16:24:41.244Z,72.70
2018-04-29T16:27:11.222Z,72.50
2018-04-29T16:29:41.003Z,72.60
2018-04-29T16:32:11.091Z,72.40
2018-04-29T16:34:41.001Z,72.50
2018-04-29T16:37:10.929Z,72.40
2018-04-29T16:39:40.904Z,72.30
2018-04-29T16:42:10.891Z,72.40
2018-04-29T16:44:40.748Z,72.50
2018-04-29T16:47:10.892Z,72.30
2018-04-29T16:49:41.380Z,72.40
2018-04-29T16:52:12.026Z,72.50
2018-04-29T16:54:41.963Z,72.40
2018-04-29T16:57:12.176Z,72.30
2018-04-29T16:59:42.151Z,72.10
2018-04-29T17:02:12.070Z,72.10
2018-04-29T17:04:41.899Z,72.20
2018-04-29T17:07:12.361Z,72.10
2018-04-29T17:09:42.262Z,72.00
2018-04-29T17:12:12.241Z,72.20
2018-04-29T17:14:42.214Z,72.20
2018-04-29T17:17:12.124Z,72.20
2018-04-29T17:19:42.367Z,72.20
2018-04-29T17:22:12.343Z,72.40
2018-04-29T17:24:42.318Z,72.20
2018-04-29T17:27:12.498Z,72.10
2018-04-29T17:29:42.430Z,72.00
2018-04-29T17:32:12.453Z,72.10
2018-04-29T17:34:42.635Z,72.20
2018-04-29T17:37:12.610Z,72.30
2018-04-29T17:39:42.473Z,72.20
2018-04-29T17:42:12.356Z,72.10
2018-04-29T17:44:42.336Z,72.10
2018-04-29T17:47:12.319Z,72.00
2018-04-29T17:49:42.250Z,71.80
2018-04-29T17:52:13.078Z,72.10
2018-04-29T17:54:43.054Z,72.10
2018-04-29T17:57:12.982Z,71.90
2018-04-29T17:59:42.804Z,71.60
2018-04-29T18:02:12.995Z,72.00
2018-04-29T18:04:42.963Z,72.00
2018-04-29T18:07:12.817Z,72.30
2018-04-29T18:09:42.715Z,72.20
2018-04-29T18:12:12.482Z,72.30
2018-04-29T18:14:43.343Z,72.10
2018-04-29T18:17:13.538Z,72.20
2018-04-29T18:19:44.136Z,72.00
2018-04-29T18:22:15.635Z,72.30
2018-04-29T18:24:45.849Z,72.20
2018-04-29T18:27:20.466Z,72.10
2018-04-29T18:29:52.426Z,71.90
2018-04-29T18:32:22.898Z,72.30
2018-04-29T18:34:53.489Z,72.10
2018-04-29T18:37:23.428Z,72.10
2018-04-29T18:39:53.293Z,72.20
2018-04-29T18:42:23.361Z,72.20
2018-04-29T18:44:53.242Z,72.10
2018-04-29T18:47:23.839Z,72.30
2018-04-29T18:49:53.607Z,72.00
2018-04-29T18:52:23.697Z,72.30
2018-04-29T18:54:53.562Z,72.20
2018-04-29T18:57:23.335Z,72.20
2018-04-29T18:59:53.328Z,72.20
2018-04-29T19:02:23.233Z,71.90
2018-04-29T19:04:53.481Z,72.20
2018-04-29T19:07:23.443Z,72.10
2018-04-29T19:09:53.625Z,72.10
2018-04-29T19:12:24.219Z,72.10
2018-04-29T19:14:54.100Z,72.20
2018-04-29T19:17:25.351Z,71.90
2018-04-29T19:19:55.329Z,72.00
2018-04-29T19:22:25.550Z,72.00
2018-04-29T19:24:55.527Z,71.90
2018-04-29T19:27:25.502Z,72.00
2018-04-29T19:29:55.269Z,71.80
2018-04-29T19:32:25.241Z,71.60
2018-04-29T19:34:55.221Z,71.80
2018-04-29T19:37:24.992Z,71.50
2018-04-29T19:39:54.968Z,71.50
2018-04-29T19:42:24.896Z,71.40
2018-04-29T19:44:54.896Z,71.40
2018-04-29T19:47:25.713Z,71.20
2018-04-29T19:49:55.694Z,71.20
2018-04-29T19:52:25.603Z,71.20
2018-04-29T19:54:55.449Z,70.80
2018-04-29T19:57:25.435Z,71.50
2018-04-29T19:59:55.395Z,70.80
2018-04-29T20:02:25.382Z,70.80
2018-04-29T20:04:55.929Z,70.80
2018-04-29T20:07:26.763Z,70.50
2018-04-29T20:09:56.734Z,70.40
2018-04-29T20:12:27.349Z,70.70
2018-04-29T20:14:57.240Z,70.70
2018-04-29T20:17:27.232Z,70.60
2018-04-29T20:19:57.408Z,70.60
2018-04-29T20:22:32.741Z,70.30
2018-04-29T20:25:02.522Z,70.40
2018-04-29T20:27:32.453Z,70.30
2018-04-29T20:30:02.750Z,70.00
2018-04-29T20:32:40.688Z,70.30
2018-04-29T20:35:10.623Z,70.00
2018-04-29T20:37:41.178Z,71.00
2018-04-29T20:40:11.325Z,70.30
2018-04-29T20:42:41.329Z,70.40
2018-04-29T20:45:11.547Z,70.20
2018-04-29T20:47:41.727Z,70.20
2018-04-29T20:50:12.582Z,70.40
2018-04-29T20:52:42.617Z,70.40
2018-04-29T20:55:12.896Z,70.20
2018-04-29T20:57:42.787Z,70.30
2018-04-29T21:00:12.847Z,70.10
2018-04-29T21:02:42.610Z,70.40
2018-04-29T21:05:12.670Z,70.20
2018-04-29T21:07:43.385Z,70.50
2018-04-29T21:10:14.233Z,70.30
2018-04-29T21:12:44.350Z,70.20
2018-04-29T21:15:14.248Z,70.30
2018-04-29T21:17:45.083Z,70.30
2018-04-29T21:20:17.798Z,70.30
2018-04-29T21:22:47.939Z,70.50
2018-04-29T21:25:17.869Z,70.30
2018-04-29T21:27:47.691Z,70.50
2018-04-29T21:30:17.871Z,70.40
2018-04-29T21:32:47.840Z,70.20
2018-04-29T21:35:17.814Z,70.30
2018-04-29T21:37:48.201Z,70.40
2018-04-29T21:40:18.340Z,70.70
2018-04-29T21:42:48.565Z,70.40
2018-04-29T21:45:18.539Z,70.10
2018-04-29T21:47:48.437Z,70.50
2018-04-29T21:50:18.496Z,70.50
2018-04-29T21:52:48.465Z,70.70
2018-04-29T21:55:18.246Z,70.30
2018-04-29T21:57:48.213Z,70.40
2018-04-29T22:00:18.185Z,70.30
2018-04-29T22:02:48.328Z,70.30
2018-04-29T22:05:18.342Z,70.30
2018-04-29T22:07:48.725Z,71.10
2018-04-29T22:10:18.705Z,70.20
2018-04-29T22:12:48.470Z,70.20
2018-04-29T22:15:18.446Z,70.40
2018-04-29T22:17:48.589Z,70.30
2018-04-29T22:20:18.809Z,70.40
2018-04-29T22:22:48.989Z,70.40
2018-04-29T22:25:18.719Z,70.30
2018-04-29T22:27:48.531Z,70.30
2018-04-29T22:30:18.507Z,70.30
2018-04-29T22:32:48.280Z,70.30
2018-04-29T22:35:18.259Z,70.20
2018-04-29T22:37:48.030Z,70.30
2018-04-29T22:40:17.802Z,70.20
2018-04-29T22:42:47.574Z,70.40
2018-04-29T22:45:17.343Z,70.50
2018-04-29T22:47:47.269Z,70.20
2018-04-29T22:50:17.254Z,70.40
2018-04-29T22:52:47.886Z,70.20
2018-04-29T22:55:18.444Z,70.40
2018-04-29T22:57:48.250Z,70.30
2018-04-29T23:00:18.137Z,70.30
2018-04-29T23:02:48.207Z,70.30
2018-04-29T23:05:18.591Z,70.00
2018-04-29T23:07:48.730Z,70.10
2018-04-29T23:10:18.618Z,70.40
2018-04-29T23:12:48.723Z,70.80
2018-04-29T23:15:18.695Z,70.20
2018-04-29T23:17:48.634Z,70.30
2018-04-29T23:20:18.644Z,70.30
2018-04-29T23:22:48.627Z,70.30
2018-04-29T23:25:18.593Z,70.20
2018-04-29T23:27:48.366Z,70.20
2018-04-29T23:30:18.343Z,70.20
2018-04-29T23:32:48.315Z,70.00
2018-04-29T23:35:18.319Z,70.40
2018-04-29T23:37:48.271Z,70.20
2018-04-29T23:40:18.636Z,70.30
2018-04-29T23:42:49.449Z,70.20
2018-04-29T23:45:19.406Z,70.20
2018-04-29T23:47:49.318Z,70.10
2018-04-29T23:50:19.176Z,70.10
2018-04-29T23:52:48.939Z,69.70
2018-04-29T23:55:18.709Z,70.10
2018-04-29T23:57:48.580Z,69.90
